AFR9AX LFPG-LEMG
Flight info
| Callsign | AFR9AX |
|---|---|
| Flight time | N/A |
| Altitude | 33000 |
| Route | AGOPA6K AGOPA DCT ARKIP DCT ARMAL DCT ARTAX DCT BEBIX DCT LMG DCT UVELI DCT OSMOB DCT VAVIX DCT NETUK/N0456F350 N857 MONTO N864 VULPE VULPE1A |
| Aircraft | A321/M-SDE3FGHIRWY/LB1 |
Departure
| Time | 2026-05-08 13:09 |
|---|---|
| Airport | Charles de Gaulle International Airport (LFPG) |
Arrival
| Time | N/A |
|---|---|
| Airport | Málaga-Costa del Sol Airport (LEMG) |
| Time | Latitude | Longitude | Altitude | Speed | Heading |
|---|---|---|---|---|---|
| 2026-05-08 12:39 | 49.00571 | 2.56664 | 360 ft | 0 kts | 175° |
| 2026-05-08 12:56 | 49.00570 | 2.56664 | 360 ft | 0 kts | 175° |
| 2026-05-08 12:56 | 49.00582 | 2.56663 | 360 ft | 2 kts | 186° |
| 2026-05-08 12:56 | 49.00595 | 2.56667 | 361 ft | 2 kts | 198° |
| 2026-05-08 12:57 | 49.00606 | 2.56674 | 361 ft | 2 kts | 209° |
| 2026-05-08 12:57 | 49.00617 | 2.56685 | 362 ft | 2 kts | 219° |
| 2026-05-08 12:57 | 49.00627 | 2.56698 | 362 ft | 2 kts | 230° |
| 2026-05-08 12:57 | 49.00635 | 2.56716 | 362 ft | 2 kts | 242° |
| 2026-05-08 12:58 | 49.00641 | 2.56739 | 363 ft | 2 kts | 256° |
| 2026-05-08 12:58 | 49.00643 | 2.56756 | 363 ft | 1 kts | 267° |
| 2026-05-08 12:58 | 49.00643 | 2.56761 | 363 ft | 0 kts | 266° |
| 2026-05-08 13:01 | 49.00643 | 2.56759 | 363 ft | 0 kts | 266° |
| 2026-05-08 13:01 | 49.00642 | 2.56735 | 363 ft | 4 kts | 266° |
| 2026-05-08 13:01 | 49.00639 | 2.56685 | 362 ft | 6 kts | 267° |
| 2026-05-08 13:02 | 49.00635 | 2.56607 | 360 ft | 9 kts | 266° |
| 2026-05-08 13:02 | 49.00629 | 2.56506 | 358 ft | 11 kts | 265° |
| 2026-05-08 13:02 | 49.00622 | 2.56366 | 353 ft | 15 kts | 266° |
| 2026-05-08 13:02 | 49.00614 | 2.56219 | 350 ft | 17 kts | 266° |
| 2026-05-08 13:03 | 49.00599 | 2.56059 | 347 ft | 18 kts | 253° |
| 2026-05-08 13:03 | 49.00572 | 2.55904 | 344 ft | 18 kts | 261° |
| 2026-05-08 13:03 | 49.00561 | 2.55715 | 338 ft | 20 kts | 266° |
| 2026-05-08 13:03 | 49.00552 | 2.55554 | 335 ft | 16 kts | 265° |
| 2026-05-08 13:04 | 49.00530 | 2.55398 | 332 ft | 17 kts | 241° |
| 2026-05-08 13:04 | 49.00427 | 2.55339 | 329 ft | 18 kts | 165° |
| 2026-05-08 13:04 | 49.00304 | 2.55392 | 328 ft | 18 kts | 164° |
| 2026-05-08 13:04 | 49.00173 | 2.55450 | 326 ft | 19 kts | 163° |
| 2026-05-08 13:05 | 49.00035 | 2.55510 | 324 ft | 19 kts | 165° |
| 2026-05-08 13:05 | 48.99903 | 2.55576 | 327 ft | 17 kts | 147° |
| 2026-05-08 13:05 | 48.99836 | 2.55726 | 330 ft | 13 kts | 112° |
| 2026-05-08 13:05 | 48.99771 | 2.55808 | 331 ft | 11 kts | 175° |
| 2026-05-08 13:06 | 48.99715 | 2.55813 | 332 ft | 0 kts | 176° |
| 2026-05-08 13:06 | 48.99714 | 2.55813 | 332 ft | 0 kts | 176° |
| 2026-05-08 13:06 | 48.99707 | 2.55814 | 332 ft | 2 kts | 176° |
| 2026-05-08 13:07 | 48.99676 | 2.55817 | 333 ft | 6 kts | 176° |
| 2026-05-08 13:07 | 48.99626 | 2.55824 | 333 ft | 8 kts | 169° |
| 2026-05-08 13:07 | 48.99604 | 2.55864 | 333 ft | 5 kts | 94° |
| 2026-05-08 13:07 | 48.99604 | 2.55924 | 333 ft | 6 kts | 86° |
| 2026-05-08 13:08 | 48.99604 | 2.55932 | 333 ft | 2 kts | 86° |
| 2026-05-08 13:08 | 48.99624 | 2.56300 | 336 ft | 73 kts | 86° |
| 2026-05-08 13:08 | 48.99680 | 2.57377 | 344 ft | 138 kts | 85° |
| 2026-05-08 13:08 | 48.99775 | 2.59031 | 506 ft | 175 kts | 86° |
| 2026-05-08 13:09 | 48.99880 | 2.60830 | 1191 ft | 178 kts | 84° |
| 2026-05-08 13:09 | 49.00001 | 2.62623 | 1940 ft | 178 kts | 83° |
| 2026-05-08 13:09 | 49.00138 | 2.64388 | 2582 ft | 168 kts | 83° |
| 2026-05-08 13:09 | 49.00270 | 2.66110 | 2889 ft | 176 kts | 84° |
| 2026-05-08 13:10 | 49.00383 | 2.67857 | 3060 ft | 193 kts | 84° |
| 2026-05-08 13:10 | 49.00424 | 2.68525 | 3145 ft | 198 kts | 84° |